createdAt,value
2023-05-02T00:02:03.144Z,100.00
2023-05-02T00:04:29.731Z,100.00
2023-05-02T00:06:56.283Z,100.00
2023-05-02T00:09:22.950Z,100.00
2023-05-02T00:11:49.364Z,100.00
2023-05-02T00:14:15.801Z,100.00
2023-05-02T00:16:42.197Z,100.00
2023-05-02T00:19:08.567Z,100.00
2023-05-02T00:21:34.959Z,100.00
2023-05-02T00:24:01.386Z,100.00
2023-05-02T00:29:19.577Z,100.00
2023-05-02T00:31:45.962Z,100.00
2023-05-02T00:34:12.304Z,100.00
2023-05-02T00:36:38.678Z,100.00
2023-05-02T00:39:05.363Z,100.00
2023-05-02T00:41:31.758Z,100.00
2023-05-02T00:43:58.503Z,100.00
2023-05-02T00:46:25.035Z,100.00
2023-05-02T00:48:51.448Z,100.00
2023-05-02T00:51:18.294Z,100.00
2023-05-02T00:53:45.013Z,100.00
2023-05-02T00:56:11.539Z,100.00
2023-05-02T00:58:41.535Z,100.00
2023-05-02T01:01:33.238Z,100.00
2023-05-02T01:03:59.767Z,100.00
2023-05-02T01:06:48.457Z,100.00
2023-05-02T01:09:39.516Z,100.00
2023-05-02T01:12:21.058Z,100.00
2023-05-02T01:14:52.876Z,100.00
2023-05-02T01:17:20.274Z,100.00
2023-05-02T01:19:54.282Z,100.00
2023-05-02T01:22:22.441Z,100.00
2023-05-02T01:24:54.565Z,100.00
2023-05-02T01:27:49.717Z,100.00
2023-05-02T01:30:18.853Z,100.00
2023-05-02T01:32:47.210Z,100.00
2023-05-02T01:35:18.125Z,100.00
2023-05-02T01:37:47.150Z,100.00
2023-05-02T01:40:17.976Z,100.00
2023-05-02T01:42:45.853Z,100.00
2023-05-02T01:45:13.136Z,100.00
2023-05-02T01:47:41.661Z,100.00
2023-05-02T01:50:10.653Z,100.00
2023-05-02T01:52:38.487Z,100.00
2023-05-02T01:55:08.057Z,100.00
2023-05-02T01:57:37.382Z,100.00
2023-05-02T02:00:06.288Z,100.00
2023-05-02T02:02:34.900Z,100.00
2023-05-02T02:05:04.695Z,100.00
2023-05-02T02:07:31.548Z,100.00
2023-05-02T02:09:58.234Z,100.00
2023-05-02T02:12:28.285Z,100.00
2023-05-02T02:15:06.611Z,100.00
2023-05-02T02:17:39.641Z,100.00
2023-05-02T02:20:09.513Z,100.00
2023-05-02T02:22:39.397Z,100.00
2023-05-02T02:25:10.331Z,100.00
2023-05-02T02:27:38.100Z,100.00
2023-05-02T02:30:05.897Z,100.00
2023-05-02T02:32:32.329Z,100.00
2023-05-02T02:34:59.509Z,100.00
2023-05-02T02:37:41.165Z,100.00
2023-05-02T02:40:42.109Z,100.00
2023-05-02T02:43:39.469Z,100.00
2023-05-02T02:46:21.054Z,100.00
2023-05-02T02:48:58.462Z,100.00
2023-05-02T02:51:50.304Z,100.00
2023-05-02T02:54:39.879Z,100.00
2023-05-02T02:57:15.063Z,100.00
2023-05-02T02:59:49.678Z,100.00
2023-05-02T03:02:19.353Z,100.00
2023-05-02T03:04:47.249Z,100.00
2023-05-02T03:07:13.825Z,100.00
2023-05-02T03:09:43.962Z,100.00
2023-05-02T03:12:10.803Z,100.00
2023-05-02T03:14:38.082Z,100.00
2023-05-02T03:17:04.972Z,100.00
2023-05-02T03:19:31.515Z,100.00
2023-05-02T03:21:57.931Z,100.00
2023-05-02T03:24:24.376Z,100.00
2023-05-02T03:26:59.057Z,100.00
2023-05-02T03:29:26.498Z,100.00
2023-05-02T03:31:52.898Z,100.00
2023-05-02T03:34:21.845Z,100.00
2023-05-02T03:36:48.319Z,100.00
2023-05-02T03:39:15.224Z,100.00
2023-05-02T03:41:42.384Z,100.00
2023-05-02T03:44:08.794Z,100.00
2023-05-02T03:46:36.715Z,100.00
2023-05-02T03:49:03.171Z,100.00
2023-05-02T03:51:29.532Z,100.00
2023-05-02T03:53:55.895Z,100.00
2023-05-02T03:56:22.334Z,100.00
2023-05-02T03:58:49.027Z,100.00
2023-05-02T04:01:16.456Z,100.00
2023-05-02T04:03:43.474Z,100.00
2023-05-02T04:06:10.172Z,100.00
2023-05-02T04:08:36.978Z,100.00
2023-05-02T04:11:03.339Z,100.00
2023-05-02T04:13:29.756Z,100.00
2023-05-02T04:15:56.331Z,100.00
2023-05-02T04:18:22.742Z,100.00
2023-05-02T04:20:50.135Z,100.00
2023-05-02T04:23:17.543Z,100.00
2023-05-02T04:25:54.788Z,100.00
2023-05-02T04:28:22.232Z,100.00
2023-05-02T04:30:51.966Z,100.00
2023-05-02T04:33:18.764Z,100.00
2023-05-02T04:35:45.241Z,100.00
2023-05-02T04:38:11.614Z,100.00
2023-05-02T04:40:38.071Z,100.00
2023-05-02T04:43:04.865Z,100.00
2023-05-02T04:45:31.241Z,100.00
2023-05-02T04:47:57.728Z,100.00
2023-05-02T04:50:24.214Z,100.00
2023-05-02T04:52:50.573Z,100.00
2023-05-02T04:55:17.007Z,100.00
2023-05-02T04:57:43.383Z,100.00
2023-05-02T05:00:10.226Z,100.00
2023-05-02T05:02:36.956Z,100.00
2023-05-02T05:05:04.361Z,100.00
2023-05-02T05:07:30.944Z,100.00
2023-05-02T05:09:57.417Z,100.00
2023-05-02T05:12:23.981Z,100.00
2023-05-02T05:14:50.630Z,100.00
2023-05-02T05:17:17.177Z,100.00
2023-05-02T05:19:43.646Z,100.00
2023-05-02T05:22:10.044Z,100.00
2023-05-02T05:24:36.436Z,100.00
2023-05-02T05:27:02.942Z,100.00
2023-05-02T05:29:31.580Z,100.00
2023-05-02T05:31:58.020Z,100.00
2023-05-02T05:34:25.132Z,100.00
2023-05-02T05:36:51.873Z,100.00
2023-05-02T05:39:18.443Z,100.00
2023-05-02T05:41:44.814Z,100.00
2023-05-02T05:44:11.236Z,100.00
2023-05-02T05:46:37.939Z,100.00
2023-05-02T05:49:04.380Z,98.74
2023-05-02T05:51:31.455Z,96.94
2023-05-02T05:53:57.941Z,96.40
2023-05-02T05:56:24.325Z,96.74
2023-05-02T05:58:50.736Z,95.03
2023-05-02T06:01:17.162Z,94.56
2023-05-02T06:03:43.547Z,93.22
2023-05-02T06:06:10.064Z,89.76
2023-05-02T06:08:36.578Z,85.78
2023-05-02T06:11:02.963Z,84.61
2023-05-02T06:13:29.372Z,83.02
2023-05-02T06:16:00.886Z,82.04
2023-05-02T06:18:27.353Z,80.70
2023-05-02T06:20:53.828Z,81.84
2023-05-02T06:23:20.212Z,80.40
2023-05-02T06:25:46.576Z,81.15
2023-05-02T06:28:12.940Z,80.25
2023-05-02T06:30:39.309Z,80.27
2023-05-02T06:33:05.900Z,79.27
2023-05-02T06:35:32.313Z,77.74
2023-05-02T06:37:58.741Z,79.68
2023-05-02T06:40:25.237Z,75.85
2023-05-02T06:42:51.662Z,77.77
2023-05-02T06:45:18.107Z,76.15
2023-05-02T06:47:44.498Z,75.83
2023-05-02T06:50:11.513Z,73.38
2023-05-02T06:52:37.905Z,73.54
2023-05-02T06:55:05.477Z,73.12
2023-05-02T06:57:31.954Z,72.73
2023-05-02T06:59:58.870Z,72.52
2023-05-02T07:02:25.500Z,71.70
2023-05-02T07:04:51.939Z,72.27
2023-05-02T07:07:20.485Z,71.49
2023-05-02T07:09:46.927Z,71.13
2023-05-02T07:12:13.283Z,71.78
2023-05-02T07:14:39.740Z,72.84
2023-05-02T07:17:06.378Z,72.84
2023-05-02T07:19:33.170Z,70.67
2023-05-02T07:21:59.608Z,69.62
2023-05-02T07:24:26.341Z,70.50
2023-05-02T07:26:52.766Z,68.33
2023-05-02T07:29:19.152Z,68.64
2023-05-02T07:31:45.633Z,67.80
2023-05-02T07:34:12.401Z,66.31
2023-05-02T07:36:38.970Z,67.19
2023-05-02T07:39:05.337Z,65.56
2023-05-02T07:41:31.724Z,65.78
2023-05-02T07:43:58.167Z,67.26
2023-05-02T07:46:24.710Z,66.21
2023-05-02T07:48:51.179Z,67.50
2023-05-02T07:51:20.248Z,66.43
2023-05-02T07:53:46.925Z,65.91
2023-05-02T07:56:13.428Z,66.88
2023-05-02T07:58:39.794Z,63.16
2023-05-02T08:01:06.228Z,66.01
2023-05-02T08:03:32.714Z,66.66
2023-05-02T08:05:59.219Z,65.89
2023-05-02T08:08:25.765Z,65.81
2023-05-02T08:10:52.127Z,65.45
2023-05-02T08:13:18.563Z,65.28
2023-05-02T08:15:45.079Z,65.60
2023-05-02T08:18:11.712Z,64.01
2023-05-02T08:20:38.224Z,64.46
2023-05-02T08:23:04.615Z,65.52
2023-05-02T08:25:31.010Z,65.51
2023-05-02T08:27:57.389Z,67.04
2023-05-02T08:30:23.806Z,69.10
2023-05-02T08:32:51.365Z,70.47
2023-05-02T09:01:49.580Z,66.87
2023-05-02T09:04:17.759Z,67.87
2023-05-02T09:06:44.220Z,65.18
2023-05-02T09:09:11.035Z,65.22
2023-05-02T09:11:37.684Z,68.62
2023-05-02T09:14:14.874Z,65.19
2023-05-02T09:16:41.354Z,63.22
2023-05-02T09:19:07.730Z,64.59
2023-05-02T09:21:42.074Z,66.18
2023-05-02T09:24:22.420Z,65.32
2023-05-02T09:27:02.596Z,65.61
2023-05-02T09:29:36.041Z,62.65
2023-05-02T09:32:03.973Z,61.10
2023-05-02T09:34:33.707Z,61.79
2023-05-02T09:37:00.199Z,62.22
2023-05-02T09:39:30.803Z,62.41
2023-05-02T09:41:58.410Z,62.69
2023-05-02T09:44:26.962Z,61.62
2023-05-02T09:46:56.198Z,60.76
2023-05-02T09:53:08.345Z,61.21
2023-05-02T09:55:35.019Z,63.13
2023-05-02T09:58:01.706Z,62.69
2023-05-02T10:00:40.481Z,60.32
2023-05-02T10:03:08.479Z,60.46
2023-05-02T10:05:38.974Z,58.63
2023-05-02T10:08:10.264Z,58.40
2023-05-02T10:10:39.040Z,60.45
2023-05-02T10:13:06.722Z,58.03
2023-05-02T10:15:36.793Z,57.98
2023-05-02T10:18:13.274Z,58.00
2023-05-02T10:20:56.787Z,57.35
2023-05-02T10:23:26.762Z,57.46
2023-05-02T10:25:53.997Z,56.88
2023-05-02T10:28:20.766Z,59.80
2023-05-02T10:30:49.708Z,59.43
2023-05-02T10:33:19.081Z,63.50
2023-05-02T10:35:49.395Z,66.00
2023-05-02T10:38:22.553Z,66.07
2023-05-02T10:40:57.922Z,66.76
2023-05-02T10:43:26.940Z,67.87
2023-05-02T10:45:54.464Z,67.25
2023-05-02T10:48:23.671Z,66.91
2023-05-02T10:50:51.599Z,65.33
2023-05-02T10:53:33.048Z,66.31
2023-05-02T10:56:24.001Z,64.17
2023-05-02T10:58:52.384Z,61.25
2023-05-02T11:01:30.975Z,62.85
2023-05-02T11:04:02.181Z,65.59
2023-05-02T11:06:34.796Z,65.92
2023-05-02T11:09:31.702Z,66.22
2023-05-02T11:11:58.723Z,66.82
2023-05-02T11:14:30.937Z,67.26
2023-05-02T11:17:06.362Z,67.58
2023-05-02T11:19:38.739Z,68.83
2023-05-02T11:22:28.104Z,69.31
2023-05-02T11:24:54.489Z,69.49
2023-05-02T11:27:30.048Z,68.69
2023-05-02T11:30:06.797Z,67.78
2023-05-02T11:32:45.682Z,65.81
2023-05-02T11:35:23.880Z,65.94
2023-05-02T11:37:54.281Z,65.42
2023-05-02T11:40:20.904Z,66.14
2023-05-02T11:42:47.716Z,65.78
2023-05-02T11:45:14.265Z,65.37
2023-05-02T11:47:42.087Z,65.13
2023-05-02T11:50:09.608Z,64.68
2023-05-02T11:52:40.326Z,62.22
2023-05-02T11:55:10.422Z,59.69
2023-05-02T11:57:38.576Z,59.67
2023-05-02T12:00:06.369Z,57.83
2023-05-02T12:02:59.073Z,58.14
2023-05-02T12:05:32.766Z,59.94
2023-05-02T12:08:01.112Z,60.84
2023-05-02T12:10:37.568Z,58.91
2023-05-02T12:13:05.583Z,57.48
2023-05-02T12:15:32.315Z,56.20
2023-05-02T12:17:59.245Z,55.98
2023-05-02T12:20:25.858Z,56.92
2023-05-02T12:22:52.462Z,57.87
2023-05-02T12:25:19.113Z,58.63
2023-05-02T12:28:02.279Z,62.07
2023-05-02T12:30:30.085Z,64.80
2023-05-02T12:33:01.720Z,64.68
2023-05-02T12:35:30.312Z,63.77
2023-05-02T12:38:11.071Z,64.58
2023-05-02T12:40:37.577Z,62.82
2023-05-02T12:43:07.243Z,62.08
2023-05-02T12:45:34.648Z,62.14
2023-05-02T12:48:02.362Z,62.33
2023-05-02T12:50:40.958Z,62.38
2023-05-02T12:53:07.659Z,62.39
2023-05-02T12:55:34.306Z,61.23
2023-05-02T12:58:05.497Z,58.94
2023-05-02T13:00:33.514Z,58.79
2023-05-02T13:03:00.178Z,58.27
2023-05-02T13:05:26.980Z,56.63
2023-05-02T13:07:53.557Z,57.13
2023-05-02T13:10:19.926Z,57.67
2023-05-02T13:12:47.062Z,58.74
2023-05-02T13:15:14.889Z,57.98
2023-05-02T13:17:41.559Z,57.29
2023-05-02T13:20:09.381Z,58.23
2023-05-02T13:22:37.250Z,58.79
2023-05-02T13:25:04.963Z,58.27
2023-05-02T13:27:31.451Z,57.09
2023-05-02T13:29:57.870Z,57.68
2023-05-02T13:32:24.320Z,56.44
2023-05-02T13:34:50.788Z,56.45
2023-05-02T13:37:17.171Z,55.31
2023-05-02T13:39:43.563Z,54.28
2023-05-02T13:42:09.968Z,54.04
2023-05-02T13:44:36.485Z,54.97
2023-05-02T13:47:03.024Z,55.40
2023-05-02T13:49:29.895Z,60.18
2023-05-02T13:51:56.478Z,59.90
2023-05-02T13:54:22.851Z,61.48
2023-05-02T13:56:49.240Z,61.93
2023-05-02T13:59:15.597Z,61.21
2023-05-02T14:01:42.269Z,61.30
2023-05-02T14:04:09.196Z,59.94
2023-05-02T14:06:36.046Z,58.92
2023-05-02T14:09:02.859Z,58.00
2023-05-02T14:11:29.649Z,56.78
2023-05-02T14:13:58.163Z,55.62
2023-05-02T14:16:24.632Z,57.16
2023-05-02T14:18:51.192Z,57.42
2023-05-02T14:21:17.628Z,55.86
2023-05-02T14:23:44.010Z,55.28
2023-05-02T14:26:10.433Z,56.53
2023-05-02T14:28:38.486Z,55.98
2023-05-02T14:31:06.297Z,56.06
2023-05-02T14:33:32.716Z,58.45
2023-05-02T14:35:59.098Z,58.83
2023-05-02T14:38:25.469Z,55.71
2023-05-02T14:40:51.897Z,55.85
2023-05-02T14:43:18.255Z,58.03
2023-05-02T14:45:44.627Z,56.05
2023-05-02T14:48:13.913Z,56.08
2023-05-02T14:50:40.921Z,56.24
2023-05-02T14:53:07.314Z,56.73
2023-05-02T14:55:40.337Z,58.93
2023-05-02T14:58:10.863Z,60.79
2023-05-02T15:00:38.550Z,62.17
2023-05-02T15:03:07.668Z,62.90
2023-05-02T15:05:36.579Z,64.27
2023-05-02T15:08:03.218Z,64.96
2023-05-02T15:10:29.658Z,62.98
2023-05-02T15:12:56.239Z,64.78
2023-05-02T15:15:25.038Z,64.54
2023-05-02T15:17:52.826Z,64.73
2023-05-02T15:20:19.778Z,64.05
2023-05-02T15:22:46.267Z,63.87
2023-05-02T15:25:12.732Z,63.16
2023-05-02T15:27:39.112Z,63.18
2023-05-02T15:30:08.939Z,63.55
2023-05-02T15:32:35.697Z,63.74
2023-05-02T15:35:02.389Z,64.00
2023-05-02T15:37:28.742Z,64.47
2023-05-02T15:39:55.298Z,64.87
2023-05-02T15:42:21.869Z,64.40
2023-05-02T15:44:48.281Z,65.13
2023-05-02T15:47:14.716Z,64.86
2023-05-02T15:49:41.685Z,64.83
2023-05-02T15:52:08.075Z,64.75
2023-05-02T15:54:34.529Z,63.97
2023-05-02T15:57:02.429Z,62.24
2023-05-02T15:59:28.908Z,62.85
2023-05-02T16:01:55.766Z,61.08
2023-05-02T16:04:22.764Z,62.04
2023-05-02T16:06:49.239Z,62.72
2023-05-02T16:09:15.781Z,60.64
2023-05-02T16:11:42.353Z,62.07
2023-05-02T16:14:08.762Z,62.85
2023-05-02T16:16:35.466Z,61.78
2023-05-02T16:19:01.921Z,61.78
2023-05-02T16:21:28.307Z,62.95
2023-05-02T16:23:55.084Z,63.70
2023-05-02T16:26:21.607Z,62.53
2023-05-02T16:28:48.037Z,62.90
2023-05-02T16:31:15.192Z,64.13
2023-05-02T16:33:42.820Z,64.09
2023-05-02T16:36:09.689Z,63.77
2023-05-02T16:38:36.602Z,64.45
2023-05-02T16:41:05.070Z,63.52
2023-05-02T16:43:31.505Z,63.72
2023-05-02T16:46:02.372Z,62.94
2023-05-02T16:48:29.185Z,63.06
2023-05-02T16:50:55.881Z,63.33
2023-05-02T16:53:22.420Z,62.13
2023-05-02T16:55:48.832Z,63.30
2023-05-02T16:58:15.493Z,63.25
2023-05-02T17:00:41.940Z,62.88
2023-05-02T17:03:08.775Z,62.89
2023-05-02T17:05:35.719Z,61.91
2023-05-02T17:08:02.242Z,61.87
2023-05-02T17:10:28.669Z,62.96
2023-05-02T17:12:56.158Z,63.44
2023-05-02T17:15:23.014Z,63.03
2023-05-02T17:17:49.477Z,63.08
2023-05-02T17:20:17.277Z,63.74
2023-05-02T17:22:43.766Z,63.52
2023-05-02T17:25:10.829Z,63.44
2023-05-02T17:27:40.581Z,62.46
2023-05-02T17:30:08.164Z,62.06
2023-05-02T17:32:37.331Z,62.22
2023-05-02T17:35:03.911Z,63.37
2023-05-02T17:37:30.306Z,64.45
2023-05-02T17:39:56.804Z,65.53
2023-05-02T17:42:23.184Z,68.04
2023-05-02T17:44:49.580Z,67.19
2023-05-02T17:47:18.062Z,67.13
2023-05-02T17:49:45.402Z,68.94
2023-05-02T17:52:11.795Z,69.32
2023-05-02T17:54:38.204Z,70.02
2023-05-02T17:57:04.640Z,69.84
2023-05-02T17:59:31.420Z,71.64
2023-05-02T18:01:58.262Z,71.32
2023-05-02T18:04:25.452Z,71.96
2023-05-02T18:06:52.375Z,71.68
2023-05-02T18:09:19.198Z,73.16
2023-05-02T18:11:45.685Z,72.83
2023-05-02T18:14:12.062Z,72.45
2023-05-02T18:16:38.960Z,73.20
2023-05-02T18:19:05.408Z,72.95
2023-05-02T18:21:35.163Z,73.95
2023-05-02T18:24:01.538Z,74.73
2023-05-02T18:26:27.937Z,74.94
2023-05-02T18:28:54.387Z,75.05
2023-05-02T18:31:21.197Z,75.41
2023-05-02T18:33:47.776Z,76.23
2023-05-02T18:36:19.079Z,77.88
2023-05-02T18:38:45.725Z,77.59
2023-05-02T18:41:12.347Z,77.77
2023-05-02T18:43:38.744Z,77.46
2023-05-02T18:46:05.174Z,77.48
2023-05-02T18:48:32.298Z,76.66
2023-05-02T18:50:58.860Z,77.32
2023-05-02T18:53:26.399Z,77.00
2023-05-02T18:55:56.476Z,76.78
2023-05-02T18:58:22.885Z,76.30
2023-05-02T19:00:50.093Z,76.91
2023-05-02T19:03:16.803Z,77.45
2023-05-02T19:05:43.788Z,78.93
2023-05-02T19:08:10.556Z,78.68
2023-05-02T19:10:36.993Z,79.18
2023-05-02T19:13:03.706Z,80.85
2023-05-02T19:15:30.144Z,80.71
2023-05-02T19:17:56.965Z,80.98
2023-05-02T19:20:23.422Z,80.74
2023-05-02T19:22:50.032Z,82.65
2023-05-02T19:25:16.513Z,83.38
2023-05-02T19:27:45.084Z,82.63
2023-05-02T19:30:14.381Z,82.55
2023-05-02T19:32:41.476Z,83.32
2023-05-02T19:35:09.077Z,82.90
2023-05-02T19:37:35.483Z,83.06
2023-05-02T19:40:01.992Z,82.27
2023-05-02T19:42:28.794Z,82.79
2023-05-02T19:44:55.292Z,83.04
2023-05-02T19:47:22.387Z,83.95
2023-05-02T19:49:51.054Z,85.82
2023-05-02T19:52:17.485Z,86.64
2023-05-02T19:54:43.856Z,85.22
2023-05-02T19:57:10.281Z,85.10
2023-05-02T19:59:36.664Z,85.16
2023-05-02T20:02:03.342Z,86.62
2023-05-02T20:04:29.931Z,87.23
2023-05-02T20:06:56.364Z,88.31
2023-05-02T20:09:22.897Z,88.50
2023-05-02T20:11:49.372Z,90.04
2023-05-02T20:14:17.309Z,89.68
2023-05-02T20:16:43.947Z,88.96
2023-05-02T20:19:10.484Z,89.03
2023-05-02T20:21:36.951Z,89.77
2023-05-02T20:24:03.809Z,90.50
2023-05-02T20:26:31.350Z,89.64
2023-05-02T20:28:58.790Z,89.62
2023-05-02T20:31:26.375Z,90.61
2023-05-02T20:33:52.876Z,91.20
2023-05-02T20:36:19.397Z,91.05
2023-05-02T20:38:47.828Z,90.67
2023-05-02T20:41:14.631Z,91.85
2023-05-02T20:43:44.535Z,92.09
2023-05-02T20:46:12.327Z,94.05
2023-05-02T20:48:38.893Z,95.86
2023-05-02T20:51:05.294Z,96.29
2023-05-02T20:53:31.679Z,95.92
2023-05-02T20:55:58.045Z,96.03
2023-05-02T20:58:24.399Z,96.14
2023-05-02T21:00:52.538Z,98.63
2023-05-02T21:03:22.152Z,100.00
2023-05-02T21:05:55.803Z,100.00
2023-05-02T21:08:22.940Z,100.00
2023-05-02T21:10:49.384Z,100.00
2023-05-02T21:13:15.791Z,100.00
2023-05-02T21:15:42.360Z,100.00
2023-05-02T21:18:08.908Z,100.00
2023-05-02T21:20:35.999Z,100.00
2023-05-02T21:23:02.443Z,100.00
2023-05-02T21:25:28.925Z,100.00
2023-05-02T21:27:56.378Z,100.00
2023-05-02T21:30:24.214Z,100.00
2023-05-02T21:32:50.853Z,100.00
2023-05-02T21:35:17.371Z,100.00
2023-05-02T21:37:43.807Z,100.00
2023-05-02T21:40:10.756Z,100.00
2023-05-02T21:42:37.114Z,100.00
2023-05-02T21:45:03.658Z,100.00
2023-05-02T21:47:30.193Z,100.00
2023-05-02T21:49:57.203Z,100.00
2023-05-02T21:52:23.607Z,100.00
2023-05-02T21:54:52.370Z,100.00
2023-05-02T21:57:21.429Z,100.00
2023-05-02T21:59:48.107Z,100.00
2023-05-02T22:02:14.619Z,100.00
2023-05-02T22:04:41.221Z,100.00
2023-05-02T22:07:07.622Z,100.00
2023-05-02T22:09:34.036Z,100.00
2023-05-02T22:12:00.472Z,100.00
2023-05-02T22:14:33.849Z,100.00
2023-05-02T22:17:08.159Z,100.00
2023-05-02T22:19:34.551Z,100.00
2023-05-02T22:22:01.605Z,100.00
2023-05-02T22:24:28.757Z,100.00
2023-05-02T22:26:58.116Z,100.00
2023-05-02T22:29:24.501Z,100.00
2023-05-02T22:31:52.038Z,100.00
2023-05-02T22:34:19.044Z,100.00
2023-05-02T22:36:45.955Z,100.00
2023-05-02T22:39:14.348Z,100.00
2023-05-02T22:41:43.718Z,100.00
2023-05-02T22:44:11.298Z,100.00
2023-05-02T22:46:38.419Z,100.00
2023-05-02T22:49:07.649Z,100.00
2023-05-02T22:51:34.074Z,100.00
2023-05-02T22:54:00.533Z,100.00
2023-05-02T22:56:27.216Z,100.00
2023-05-02T22:58:53.627Z,100.00
2023-05-02T23:01:20.110Z,100.00
2023-05-02T23:03:46.759Z,100.00
2023-05-02T23:06:13.261Z,100.00
2023-05-02T23:08:40.087Z,100.00
2023-05-02T23:11:06.506Z,100.00
2023-05-02T23:13:32.886Z,100.00
2023-05-02T23:15:59.404Z,100.00
2023-05-02T23:18:25.855Z,100.00
2023-05-02T23:20:52.263Z,100.00
2023-05-02T23:23:18.697Z,100.00
2023-05-02T23:25:45.164Z,100.00
2023-05-02T23:28:12.090Z,100.00
2023-05-02T23:30:40.112Z,100.00
2023-05-02T23:33:06.675Z,100.00
2023-05-02T23:35:33.622Z,100.00
2023-05-02T23:38:00.793Z,100.00
2023-05-02T23:40:28.172Z,100.00
2023-05-02T23:42:54.567Z,100.00
2023-05-02T23:45:21.157Z,100.00
2023-05-02T23:47:47.731Z,100.00
2023-05-02T23:50:14.609Z,100.00
2023-05-02T23:52:41.001Z,100.00
2023-05-02T23:55:10.367Z,100.00
2023-05-02T23:57:37.404Z,100.00
